HCMH

Egal International Airport

Hargeisa, Somalia
METAR HCMH 151300Z 18017KT 9999 FEW030 31/13 Q1016
Observed Flight Rules
Aug-15 @ 13:00 UTC (9 hours ago) Visual Flight Rules
Wind Visibility Clouds
180° at 17 knots 10,000+ meters
  • Few at 3,000' AGL
Temperatures Readings
Current 31°C / 88°F
Dewpoint 13°C / 55°F
Humidity 33%
Altimeter 30" Hg
Pressure 1016 hPa
Elevation 1326
METAR HCMH 151300Z 18017KT 9999 FEW030 31/13 Q1016
Observed Flight Rules
Aug-15 @ 13:00 UTC
(9 hours ago)
VFR
Wind Visibility
180° at 17 knots 10,000+ meters
Clouds
  • Few at 3,000' AGL
Temperature Dewpoint
31°C / 88°F 13°C / 55°F
Humidity Altimeter Pressure
33% 30" Hg 1016 hPa